الصفحة الرئيسية
METAR-TAF:

METAR-TAF

مطار :

زغرب, كرواتيا

دائرة عرض: 45-44N, خط طول: 016-04E, ارتفاع: 106 متر

مراقبة الطقس الحالي

تاريخ ووقت الإصدار 12 دقيقة قبل الساعة 01:00UTC
ريح 3 عقدة من الجنوب الغربي
درجة الحرارة 16°درجة مئوية
الرطوبة 88%
ضغط 1015 hPa
الرؤية 10 كم أو أكثر
الغيوم لا تقل 1500 م ولا وجود لمزنة ركامية السحاب الأسود

METAR: LDZA 170100Z 23003KT CAVOK 16/14 Q1015 NOSIG

زمن: 03:12 (01:12 UTC)

توقعات

تاريخ ووقت الإصدار 1ساعة و 47 دقيقة قبل الساعة 23:25UTC
التوقعات صالحة من17 الساعة 00 UTC إلى 18 الساعة 00 UTC
ريح 2 عقدةمن اتجاهات متغيرة
الرؤية 10 كم أو أكثر
الغيوم لا تقل 1500 م ولا وجود لمزنة ركامية السحاب الأسود

TAF: LDZA 162325Z 1700/1800 VRB02KT CAVOK TX30/1713Z TN16/1703Z

أرصاد الطقس والتوقعات من أكثر من 4000 مطار (تقارير الطقس للمطار METAR والتنبؤ بالطقس بالمطارTAF).

المحطات المتاحة هي النقط الصفراء والحمراء على الخريطة.

حرك المؤشر فوق النقطة لمعرفة اسم المحطة.

ثم انقر لمعرفة أرصاد وتوقعات الطقس.

لتغيير الخارطة: اضغط على الأزرار الخضراء مع رمز الصليب الأسود للتكبير. على الزر الأخضر مع شرطة للتصغير، أو على الأسهم الخضراء للخرائط المجاورة.


METAR-TAF: